Time;durP1;ratioP1;P1;durP2;ratioP2;P2;SDS_P1;SDS_P2;PMS_P1;PMS_P2;Temp;Humidity;BMP_temperature;BMP_pressure;BME280_temperature;BME280_humidity;BME280_pressure;Samples;Min_cycle;Max_cycle;Signal;HPM_P1;HPM_P2
2023/10/20 00:00:18;;;;;;;0.00;0.00;;;19.10;72.00;;;;;;5023226;28;20626;-30
2023/10/20 00:02:46;;;;;;;0.00;0.00;;;19.10;72.00;;;;;;5024604;28;20225;-30
2023/10/20 00:05:13;;;;;;;0.00;0.00;;;19.10;72.00;;;;;;5020919;28;20685;-31
2023/10/20 00:07:43;;;;;;;0.00;0.00;;;19.10;72.00;;;;;;4987599;28;20287;-30
2023/10/20 00:10:13;;;;;;;0.00;0.00;;;19.10;72.00;;;;;;5004957;28;20719;-30
2023/10/20 00:12:40;;;;;;;0.00;0.00;;;19.10;72.00;;;;;;5003174;28;20271;-30
2023/10/20 00:15:13;;;;;;;0.00;0.00;;;19.10;72.10;;;;;;5006034;28;20212;-31
2023/10/20 00:17:42;;;;;;;0.00;0.00;;;19.10;72.00;;;;;;5004516;28;20306;-30
2023/10/20 00:20:10;;;;;;;0.00;0.00;;;19.10;72.00;;;;;;5005356;28;20202;-30
2023/10/20 00:22:40;;;;;;;0.00;0.00;;;19.10;72.00;;;;;;5005375;28;20660;-30
2023/10/20 00:25:11;;;;;;;0.00;0.00;;;19.10;72.00;;;;;;5006977;28;20213;-30
2023/10/20 00:27:39;;;;;;;0.00;0.00;;;19.00;71.90;;;;;;5005471;28;20390;-31
2023/10/20 00:30:14;;;;;;;0.00;0.00;;;19.00;72.00;;;;;;5002722;28;20220;-30
2023/10/20 00:32:45;;;;;;;0.00;0.00;;;19.00;72.00;;;;;;5012343;28;20318;-31
2023/10/20 00:35:13;;;;;;;0.00;0.00;;;19.10;72.10;;;;;;5005836;28;20597;-31
2023/10/20 00:37:41;;;;;;;0.00;0.00;;;19.00;72.00;;;;;;5006512;28;20328;-31
2023/10/20 00:40:10;;;;;;;0.00;0.00;;;19.00;72.00;;;;;;5008370;28;20304;-30
2023/10/20 00:42:40;;;;;;;0.00;0.00;;;19.00;72.00;;;;;;5016305;28;20193;-31
2023/10/20 00:45:08;;;;;;;0.00;0.00;;;19.00;72.00;;;;;;5005615;28;20237;-31
2023/10/20 00:47:38;;;;;;;0.00;0.00;;;19.00;72.00;;;;;;5023314;28;20213;-30
2023/10/20 00:50:11;;;;;;;0.00;0.00;;;19.00;72.10;;;;;;5013803;28;20570;-31
2023/10/20 00:52:43;;;;;;;0.00;0.00;;;19.00;72.10;;;;;;5008992;28;20209;-30
2023/10/20 00:55:11;;;;;;;0.00;0.00;;;19.00;72.10;;;;;;4996762;28;20208;-31
2023/10/20 00:57:39;;;;;;;0.00;0.00;;;19.00;72.10;;;;;;5008239;28;20229;-30
2023/10/20 01:00:09;;;;;;;0.00;0.00;;;19.00;72.20;;;;;;5022206;28;20199;-30
2023/10/20 01:02:39;;;;;;;0.00;0.00;;;19.00;72.10;;;;;;5016151;28;20664;-30
2023/10/20 01:05:10;;;;;;;0.00;0.00;;;19.00;72.10;;;;;;5017921;28;20315;-31
2023/10/20 01:07:37;;;;;;;0.00;0.00;;;19.00;72.10;;;;;;5020732;28;20209;-30
2023/10/20 01:10:09;;;;;;;0.00;0.00;;;19.00;72.10;;;;;;5025852;28;20642;-30
2023/10/20 01:12:43;;;;;;;0.00;0.00;;;19.00;72.20;;;;;;5020091;28;20200;-31
2023/10/20 01:15:18;;;;;;;0.00;0.00;;;19.00;72.20;;;;;;5021768;28;20671;-30
2023/10/20 01:17:49;;;;;;;0.00;0.00;;;19.00;72.20;;;;;;5004402;28;20224;-30
2023/10/20 01:20:17;;;;;;;0.00;0.00;;;18.90;72.10;;;;;;5027105;28;20205;-31
2023/10/20 01:22:46;;;;;;;0.00;0.00;;;18.90;72.20;;;;;;5025206;28;20829;-29
2023/10/20 01:25:13;;;;;;;0.00;0.00;;;19.00;72.30;;;;;;5023596;28;20200;-30
2023/10/20 01:27:42;;;;;;;0.00;0.00;;;18.90;72.20;;;;;;4992859;28;20653;-31
2023/10/20 01:30:10;;;;;;;0.00;0.00;;;19.00;72.30;;;;;;5028240;28;20209;-31
2023/10/20 01:32:41;;;;;;;0.00;0.00;;;19.00;72.30;;;;;;5025636;28;20217;-30
2023/10/20 01:35:11;;;;;;;0.00;0.00;;;19.00;72.30;;;;;;5027278;28;20204;-30
2023/10/20 01:37:40;;;;;;;0.00;0.00;;;19.00;72.30;;;;;;5025439;28;20217;-31
2023/10/20 01:40:09;;;;;;;0.00;0.00;;;19.00;72.30;;;;;;5026575;28;20201;-30
2023/10/20 01:42:42;;;;;;;0.00;0.00;;;19.00;72.30;;;;;;5028469;28;20217;-31
2023/10/20 01:45:11;;;;;;;0.00;0.00;;;19.00;72.30;;;;;;5027196;28;20799;-30
2023/10/20 01:47:41;;;;;;;0.00;0.00;;;19.00;72.30;;;;;;5026686;28;20703;-31
2023/10/20 01:50:08;;;;;;;0.00;0.00;;;19.00;72.30;;;;;;5026952;28;20687;-31
2023/10/20 01:52:35;;;;;;;0.00;0.00;;;19.00;72.40;;;;;;5027113;28;20582;-31
2023/10/20 01:55:03;;;;;;;0.00;0.00;;;19.00;72.40;;;;;;5009038;28;20382;-31
2023/10/20 01:57:33;;;;;;;0.00;0.00;;;19.00;72.40;;;;;;5018640;28;20316;-31
2023/10/20 02:00:01;;;;;;;0.00;0.00;;;19.00;72.40;;;;;;5006536;28;20914;-31
2023/10/20 02:02:31;;;;;;;0.00;0.00;;;19.00;72.40;;;;;;5006324;28;20249;-30
2023/10/20 02:04:58;;;;;;;0.00;0.00;;;18.90;72.40;;;;;;5006730;28;20209;-31
2023/10/20 02:07:25;;;;;;;0.00;0.00;;;19.00;72.40;;;;;;5005842;28;20828;-31
2023/10/20 02:09:54;;;;;;;0.00;0.00;;;18.90;72.40;;;;;;5005101;28;20236;-31
2023/10/20 02:12:22;;;;;;;0.00;0.00;;;18.90;72.40;;;;;;5006828;28;20198;-31
2023/10/20 02:14:49;;;;;;;0.00;0.00;;;18.90;72.40;;;;;;5014289;28;20295;-30
2023/10/20 02:17:16;;;;;;;0.00;0.00;;;18.90;72.40;;;;;;5027329;28;20730;-31
2023/10/20 02:19:46;;;;;;;0.00;0.00;;;18.90;72.40;;;;;;5028508;28;20359;-31
2023/10/20 02:22:15;;;;;;;0.00;0.00;;;18.90;72.40;;;;;;5043169;28;20215;-30
2023/10/20 02:24:47;;;;;;;0.00;0.00;;;18.90;72.40;;;;;;5026482;28;20240;-31
2023/10/20 02:27:16;;;;;;;0.00;0.00;;;18.90;72.40;;;;;;5028010;28;20197;-31
2023/10/20 02:29:46;;;;;;;0.00;0.00;;;18.90;72.40;;;;;;5025179;28;20205;-30
2023/10/20 02:32:13;;;;;;;0.00;0.00;;;18.90;72.40;;;;;;5024390;28;20227;-31
2023/10/20 02:34:41;;;;;;;0.00;0.00;;;18.90;72.40;;;;;;5022359;28;20718;-31
2023/10/20 02:37:11;;;;;;;0.00;0.00;;;18.90;72.50;;;;;;5007577;28;20307;-31
2023/10/20 02:39:45;;;;;;;0.00;0.00;;;18.90;72.50;;;;;;5006782;28;20946;-30
2023/10/20 02:42:17;;;;;;;0.00;0.00;;;18.90;72.50;;;;;;5006385;28;20206;-31
2023/10/20 02:44:44;;;;;;;0.00;0.00;;;18.90;72.50;;;;;;5005211;28;20197;-30
2023/10/20 02:47:11;;;;;;;0.00;0.00;;;18.80;72.50;;;;;;5008703;28;20214;-30
2023/10/20 02:49:38;;;;;;;0.00;0.00;;;18.90;72.50;;;;;;5021738;28;20571;-31
2023/10/20 02:52:07;;;;;;;0.00;0.00;;;18.80;72.50;;;;;;5024497;28;20263;-31
2023/10/20 02:54:36;;;;;;;0.00;0.00;;;18.80;72.50;;;;;;5023960;28;20574;-31
2023/10/20 02:57:07;;;;;;;0.00;0.00;;;18.80;72.50;;;;;;5024472;28;20235;-30
2023/10/20 02:59:36;;;;;;;0.00;0.00;;;18.80;72.50;;;;;;5024356;28;20288;-30
2023/10/20 03:02:06;;;;;;;0.00;0.00;;;18.80;72.50;;;;;;5013398;28;20230;-31
2023/10/20 03:04:33;;;;;;;0.00;0.00;;;18.80;72.60;;;;;;5014511;28;20201;-31
2023/10/20 03:07:03;;;;;;;0.00;0.00;;;18.80;72.50;;;;;;5011737;28;20201;-31
2023/10/20 03:09:30;;;;;;;0.00;0.00;;;18.80;72.50;;;;;;5016964;28;20201;-30
2023/10/20 03:11:58;;;;;;;0.00;0.00;;;18.80;72.50;;;;;;5013175;28;20213;-31
2023/10/20 03:14:27;;;;;;;0.00;0.00;;;18.70;72.50;;;;;;5005683;28;20272;-31
2023/10/20 03:16:57;;;;;;;0.00;0.00;;;18.70;72.50;;;;;;5020453;28;20598;-31
2023/10/20 03:19:29;;;;;;;0.00;0.00;;;18.70;72.60;;;;;;5007297;28;20300;-32
2023/10/20 03:21:56;;;;;;;0.00;0.00;;;18.70;72.60;;;;;;5012698;28;20221;-30
2023/10/20 03:24:25;;;;;;;0.00;0.00;;;18.70;72.50;;;;;;5021845;28;20312;-31
2023/10/20 03:26:52;;;;;;;0.00;0.00;;;18.70;72.60;;;;;;5005562;28;20208;-31
2023/10/20 03:29:22;;;;;;;0.00;0.00;;;18.70;72.60;;;;;;5023764;28;20208;-31
2023/10/20 03:31:49;;;;;;;0.00;0.00;;;18.70;72.60;;;;;;5023510;28;20574;-30
2023/10/20 03:34:18;;;;;;;0.00;0.00;;;18.70;72.70;;;;;;5024561;28;20216;-30
2023/10/20 03:36:51;;;;;;;0.00;0.00;;;18.70;72.60;;;;;;5023857;28;20255;-31
2023/10/20 03:39:24;;;;;;;0.00;0.00;;;18.70;72.70;;;;;;5020252;28;20197;-30
2023/10/20 03:41:51;;;;;;;0.00;0.00;;;18.70;72.70;;;;;;5023192;28;20678;-30
2023/10/20 03:44:22;;;;;;;0.00;0.00;;;18.70;72.70;;;;;;5024018;28;20666;-31
2023/10/20 03:46:49;;;;;;;0.00;0.00;;;18.70;72.70;;;;;;5023370;28;20197;-31
2023/10/20 03:49:19;;;;;;;0.00;0.00;;;18.70;72.70;;;;;;5024683;28;20286;-30
2023/10/20 03:51:49;;;;;;;0.00;0.00;;;18.60;72.60;;;;;;5023607;28;20639;-30
2023/10/20 03:54:25;;;;;;;0.00;0.00;;;18.70;72.60;;;;;;5024599;28;20228;-31
2023/10/20 03:56:56;;;;;;;0.00;0.00;;;18.60;72.60;;;;;;5013006;28;20302;-31
2023/10/20 03:59:25;;;;;;;0.00;0.00;;;18.60;72.60;;;;;;5004608;28;20200;-31
2023/10/20 04:01:52;;;;;;;0.00;0.00;;;18.60;72.70;;;;;;5005276;28;20312;-30
2023/10/20 04:04:20;;;;;;;0.00;0.00;;;18.60;72.70;;;;;;4987525;28;20202;-30
2023/10/20 04:06:49;;;;;;;0.00;0.00;;;18.60;72.70;;;;;;5004948;28;20228;-31
2023/10/20 04:09:21;;;;;;;0.00;0.00;;;18.60;73.60;;;;;;5004787;28;20244;-31
2023/10/20 04:11:50;;;;;;;0.00;0.00;;;18.60;72.80;;;;;;5005785;28;20213;-30
2023/10/20 04:14:17;;;;;;;0.00;0.00;;;18.60;72.80;;;;;;5008902;28;20213;-30
2023/10/20 04:16:45;;;;;;;0.00;0.00;;;18.60;72.80;;;;;;5016370;28;20260;-30
2023/10/20 04:19:15;;;;;;;0.00;0.00;;;18.60;72.90;;;;;;5028562;28;20200;-31
2023/10/20 04:21:43;;;;;;;0.00;0.00;;;18.60;72.90;;;;;;5027653;28;20228;-31
2023/10/20 04:24:11;;;;;;;0.00;0.00;;;18.60;72.80;;;;;;5029240;28;20196;-31
2023/10/20 04:26:41;;;;;;;0.00;0.00;;;18.50;72.80;;;;;;5029144;28;20217;-31
2023/10/20 04:43:37;;;;;;;0.00;0.00;;;18.50;73.00;;;;;;5028704;28;20209;-31
2023/10/20 04:51:18;;;;;;;0.00;0.00;;;18.40;73.10;;;;;;5029322;28;20197;-31
2023/10/20 04:53:52;;;;;;;0.00;0.00;;;18.50;73.20;;;;;;5028581;28;20216;-31
2023/10/20 04:56:35;;;;;;;0.00;0.00;;;18.50;73.10;;;;;;5028629;28;20188;-30
2023/10/20 04:59:10;;;;;;;0.00;0.00;;;18.50;73.10;;;;;;5027509;28;20201;-31
2023/10/20 05:01:49;;;;;;;0.00;0.00;;;18.50;73.10;;;;;;5008639;28;20325;-31
2023/10/20 05:04:24;;;;;;;0.00;0.00;;;18.50;73.10;;;;;;5010117;28;20225;-31
2023/10/20 05:07:08;;;;;;;0.00;0.00;;;18.50;73.60;;;;;;5007067;28;20251;-31
2023/10/20 05:09:43;;;;;;;0.00;0.00;;;18.50;73.20;;;;;;5014954;28;20881;-30
2023/10/20 05:12:12;;;;;;;0.00;0.00;;;18.50;73.30;;;;;;5013826;28;20304;-31
2023/10/20 05:14:40;;;;;;;0.00;0.00;;;18.50;73.40;;;;;;5013508;28;20221;-30
2023/10/20 05:17:10;;;;;;;0.00;0.00;;;18.50;73.20;;;;;;5016157;28;20224;-31
2023/10/20 05:19:43;;;;;;;0.00;0.00;;;18.50;73.30;;;;;;5016919;28;20205;-30
2023/10/20 05:22:10;;;;;;;0.00;0.00;;;18.50;73.40;;;;;;5010421;28;20758;-30
2023/10/20 05:24:39;;;;;;;0.00;0.00;;;18.50;73.40;;;;;;5007279;28;20288;-30
2023/10/20 05:27:06;;;;;;;0.00;0.00;;;18.50;73.60;;;;;;5015136;28;20303;-30
2023/10/20 05:29:38;;;;;;;0.00;0.00;;;18.50;73.40;;;;;;5018140;28;20233;-29
2023/10/20 05:32:06;;;;;;;0.00;0.00;;;18.50;73.40;;;;;;5017897;28;20285;-30
2023/10/20 05:34:34;;;;;;;0.00;0.00;;;18.40;73.40;;;;;;5014230;28;20210;-30
2023/10/20 05:37:04;;;;;;;0.00;0.00;;;18.40;73.30;;;;;;5023557;28;20522;-29
2023/10/20 05:39:36;;;;;;;0.00;0.00;;;18.50;73.50;;;;;;5025687;28;20212;-30
2023/10/20 05:42:05;;;;;;;0.00;0.00;;;18.40;73.40;;;;;;5010432;28;20200;-29
2023/10/20 05:44:47;;;;;;;0.00;0.00;;;18.40;73.40;;;;;;5015332;28;20567;-30
2023/10/20 05:47:15;;;;;;;0.00;0.00;;;18.40;73.50;;;;;;5018641;28;20290;-30
2023/10/20 05:49:44;;;;;;;0.00;0.00;;;18.40;73.50;;;;;;5026425;28;20205;-29
2023/10/20 05:52:14;;;;;;;0.00;0.00;;;18.40;73.60;;;;;;5014756;28;20205;-29
2023/10/20 05:54:44;;;;;;;0.00;0.00;;;18.40;73.60;;;;;;5025085;28;20716;-29
2023/10/20 05:57:14;;;;;;;0.00;0.00;;;18.50;73.60;;;;;;5026918;28;20221;-29
2023/10/20 05:59:46;;;;;;;0.00;0.00;;;18.50;73.70;;;;;;5009811;28;20469;-29
2023/10/20 06:02:18;;;;;;;0.00;0.00;;;18.40;73.60;;;;;;5016681;28;20356;-29
2023/10/20 06:04:48;;;;;;;0.00;0.00;;;18.50;73.90;;;;;;5009966;28;20214;-29
2023/10/20 06:07:18;;;;;;;0.00;0.00;;;18.50;74.00;;;;;;5016291;28;20220;-29
2023/10/20 06:09:49;;;;;;;0.00;0.00;;;18.40;73.90;;;;;;5014286;28;20221;-29
2023/10/20 06:12:19;;;;;;;0.00;0.00;;;18.40;74.00;;;;;;5022854;28;20208;-29
2023/10/20 06:14:46;;;;;;;0.00;0.00;;;18.50;73.90;;;;;;5026261;28;20303;-29
2023/10/20 06:17:17;;;;;;;0.00;0.00;;;18.50;73.90;;;;;;5020245;28;20216;-29
2023/10/20 06:19:47;;;;;;;0.00;0.00;;;18.50;74.60;;;;;;5011469;28;20649;-29
2023/10/20 06:22:17;;;;;;;0.00;0.00;;;18.50;73.80;;;;;;5019715;28;20206;-29
2023/10/20 06:24:47;;;;;;;0.00;0.00;;;18.50;73.80;;;;;;4991584;28;20233;-29
2023/10/20 06:27:14;;;;;;;0.00;0.00;;;18.50;73.90;;;;;;5014343;28;20228;-29
2023/10/20 06:35:00;;;;;;;0.00;0.00;;;18.50;73.90;;;;;;5005479;28;20876;-29
2023/10/20 06:37:36;;;;;;;0.00;0.00;;;18.50;73.90;;;;;;5020984;28;20564;-29
2023/10/20 06:40:06;;;;;;;0.00;0.00;;;18.50;73.90;;;;;;5019571;28;20197;-29
2023/10/20 06:42:34;;;;;;;0.00;0.00;;;18.50;74.00;;;;;;5026649;28;20562;-29
2023/10/20 06:45:02;;;;;;;0.00;0.00;;;18.50;74.00;;;;;;5016045;28;20209;-29
2023/10/20 06:47:32;;;;;;;0.00;0.00;;;18.50;74.00;;;;;;5012803;28;20517;-29
2023/10/20 06:50:02;;;;;;;0.00;0.00;;;18.50;74.00;;;;;;5008036;28;20201;-29
2023/10/20 06:52:29;;;;;;;0.00;0.00;;;18.50;74.00;;;;;;5011817;28;20687;-29
2023/10/20 06:54:59;;;;;;;0.00;0.00;;;18.50;74.00;;;;;;5024812;28;20216;-29
2023/10/20 06:57:46;;;;;;;0.00;0.00;;;18.50;74.00;;;;;;5021542;28;20235;-29
2023/10/20 07:00:21;;;;;;;0.00;0.00;;;18.50;74.00;;;;;;5022794;28;20709;-29
2023/10/20 07:02:51;;;;;;;0.00;0.00;;;18.50;74.10;;;;;;5007083;28;20344;-29
2023/10/20 07:05:23;;;;;;;0.00;0.00;;;18.50;74.10;;;;;;5006111;28;20608;-29
2023/10/20 07:07:51;;;;;;;0.00;0.00;;;18.50;74.10;;;;;;5011702;28;20244;-29
2023/10/20 07:10:21;;;;;;;0.00;0.00;;;18.50;74.00;;;;;;5007222;28;20214;-30
2023/10/20 07:12:49;;;;;;;0.00;0.00;;;18.50;74.10;;;;;;5012693;28;20212;-30
2023/10/20 07:15:21;;;;;;;0.00;0.00;;;18.60;74.20;;;;;;5020950;28;20212;-30
2023/10/20 07:17:48;;;;;;;0.00;0.00;;;18.50;74.10;;;;;;5010142;28;20595;-30
2023/10/20 07:20:20;;;;;;;0.00;0.00;;;18.50;74.10;;;;;;5040842;28;20193;-29
2023/10/20 07:22:52;;;;;;;0.00;0.00;;;18.60;74.30;;;;;;5019286;28;20288;-29
2023/10/20 07:25:22;;;;;;;0.00;0.00;;;18.60;74.30;;;;;;5018602;28;20197;-29
2023/10/20 07:27:51;;;;;;;0.00;0.00;;;18.60;74.30;;;;;;5025341;28;20312;-30
2023/10/20 07:30:18;;;;;;;0.00;0.00;;;18.60;74.30;;;;;;5009970;28;20207;-30
2023/10/20 07:32:46;;;;;;;0.00;0.00;;;18.60;74.30;;;;;;5018004;28;20542;-30
2023/10/20 07:35:13;;;;;;;0.00;0.00;;;18.60;74.30;;;;;;5025266;28;20209;-29
2023/10/20 07:37:43;;;;;;;0.00;0.00;;;18.60;74.30;;;;;;5028419;28;20275;-29
2023/10/20 07:40:18;;;;;;;0.00;0.00;;;18.60;74.30;;;;;;5028270;28;20311;-30
2023/10/20 07:42:46;;;;;;;0.00;0.00;;;18.60;74.40;;;;;;5023603;28;20193;-30
2023/10/20 07:45:18;;;;;;;0.00;0.00;;;18.60;74.40;;;;;;5023439;28;20217;-29
2023/10/20 07:47:46;;;;;;;0.00;0.00;;;18.60;74.50;;;;;;5025062;28;20200;-29
2023/10/20 07:50:17;;;;;;;0.00;0.00;;;18.70;74.50;;;;;;5022364;28;20250;-30
2023/10/20 07:52:47;;;;;;;0.00;0.00;;;18.70;74.50;;;;;;5009566;28;21162;-30
2023/10/20 07:55:14;;;;;;;0.00;0.00;;;18.70;74.50;;;;;;5026047;28;20711;-30
2023/10/20 07:57:46;;;;;;;0.00;0.00;;;18.70;74.50;;;;;;5013682;28;20225;-30
2023/10/20 08:00:19;;;;;;;0.00;0.00;;;18.70;74.60;;;;;;5010846;28;20197;-30
2023/10/20 08:02:48;;;;;;;0.00;0.00;;;18.70;74.50;;;;;;5010466;28;20229;-30
2023/10/20 08:05:20;;;;;;;0.00;0.00;;;18.80;74.60;;;;;;5009106;28;20232;-30
2023/10/20 08:07:49;;;;;;;0.00;0.00;;;18.80;74.60;;;;;;5011429;28;20652;-30
2023/10/20 08:10:16;;;;;;;0.00;0.00;;;18.80;74.70;;;;;;5007629;28;20209;-30
2023/10/20 08:12:43;;;;;;;0.00;0.00;;;18.80;75.40;;;;;;5008713;28;20314;-30
2023/10/20 08:15:12;;;;;;;0.00;0.00;;;18.80;74.60;;;;;;5022640;28;20217;-30
2023/10/20 08:17:40;;;;;;;0.00;0.00;;;18.80;74.60;;;;;;5019471;28;20239;-30
2023/10/20 08:20:09;;;;;;;0.00;0.00;;;18.90;74.70;;;;;;5019490;28;20213;-29
2023/10/20 08:22:40;;;;;;;0.00;0.00;;;18.80;74.60;;;;;;5008573;28;20289;-29
2023/10/20 08:25:08;;;;;;;0.00;0.00;;;18.90;74.70;;;;;;5012318;28;20535;-30
2023/10/20 08:27:36;;;;;;;0.00;0.00;;;18.90;74.70;;;;;;5007196;28;20639;-30
2023/10/20 08:30:04;;;;;;;0.00;0.00;;;18.90;74.70;;;;;;5017870;28;20209;-30
2023/10/20 08:32:34;;;;;;;0.00;0.00;;;18.90;74.70;;;;;;5022734;28;20266;-30
2023/10/20 08:35:07;;;;;;;0.00;0.00;;;18.90;74.70;;;;;;5032828;28;20221;-29
2023/10/20 08:37:39;;;;;;;0.00;0.00;;;18.90;74.70;;;;;;5016275;28;20599;-30
2023/10/20 08:40:12;;;;;;;0.00;0.00;;;18.90;74.70;;;;;;5006605;28;20197;-30
2023/10/20 08:42:40;;;;;;;0.00;0.00;;;18.90;74.80;;;;;;5008587;28;20590;-30
2023/10/20 08:45:12;;;;;;;0.00;0.00;;;18.90;74.70;;;;;;5023305;28;20723;-30
2023/10/20 08:47:45;;;;;;;0.00;0.00;;;18.90;74.80;;;;;;5011237;28;20209;-29
2023/10/20 08:50:15;;;;;;;0.00;0.00;;;18.90;74.90;;;;;;5021172;28;20193;-30
2023/10/20 08:52:45;;;;;;;0.00;0.00;;;18.90;74.80;;;;;;5008220;28;20201;-29
2023/10/20 08:55:15;;;;;;;0.00;0.00;;;18.90;74.80;;;;;;5016517;28;20247;-30
2023/10/20 08:57:45;;;;;;;0.00;0.00;;;19.00;74.90;;;;;;5038555;28;20729;-30
2023/10/20 09:00:22;;;;;;;0.00;0.00;;;19.00;74.90;;;;;;5024926;28;20229;-29
2023/10/20 09:02:59;;;;;;;0.00;0.00;;;19.00;74.80;;;;;;5024451;28;20770;-29
2023/10/20 09:05:26;;;;;;;0.00;0.00;;;19.00;74.90;;;;;;5025150;28;20241;-30
2023/10/20 09:07:56;;;;;;;0.00;0.00;;;19.00;74.80;;;;;;5025149;28;20197;-29
2023/10/20 09:10:25;;;;;;;0.00;0.00;;;19.00;74.90;;;;;;5027531;28;20216;-29
2023/10/20 09:12:53;;;;;;;0.00;0.00;;;19.00;75.00;;;;;;5012999;28;20750;-30
2023/10/20 09:15:22;;;;;;;0.00;0.00;;;19.00;75.00;;;;;;5022575;28;20662;-29
2023/10/20 09:17:55;;;;;;;0.00;0.00;;;19.00;75.00;;;;;;5028912;28;20224;-29
2023/10/20 09:20:27;;;;;;;0.00;0.00;;;19.00;75.00;;;;;;5018698;28;20726;-29
2023/10/20 09:22:54;;;;;;;0.00;0.00;;;19.00;75.10;;;;;;5024399;28;20209;-30
2023/10/20 09:25:21;;;;;;;0.00;0.00;;;19.10;75.10;;;;;;5029368;28;20193;-30
2023/10/20 09:27:48;;;;;;;0.00;0.00;;;19.10;75.10;;;;;;5030581;28;20754;-30
2023/10/20 09:30:18;;;;;;;0.00;0.00;;;19.10;75.10;;;;;;5021422;28;20208;-30
2023/10/20 09:32:47;;;;;;;0.00;0.00;;;19.10;75.10;;;;;;5021915;28;20315;-30
2023/10/20 09:35:20;;;;;;;0.00;0.00;;;19.10;75.10;;;;;;5022392;28;20247;-30
2023/10/20 09:37:55;;;;;;;0.00;0.00;;;19.10;75.10;;;;;;5019505;28;20228;-30
2023/10/20 09:40:25;;;;;;;0.00;0.00;;;19.10;75.10;;;;;;5027441;28;20197;-30
2023/10/20 09:43:02;;;;;;;0.00;0.00;;;19.20;75.20;;;;;;5017212;28;20560;-30
2023/10/20 09:45:52;;;;;;;0.00;0.00;;;19.20;75.20;;;;;;5021083;28;20323;-29
2023/10/20 09:48:19;;;;;;;0.00;0.00;;;19.20;75.20;;;;;;5009609;28;20214;-30
2023/10/20 09:50:49;;;;;;;0.00;0.00;;;19.20;75.30;;;;;;5010845;28;20241;-30
2023/10/20 09:53:21;;;;;;;0.00;0.00;;;19.20;75.30;;;;;;5011939;28;20202;-30
2023/10/20 09:55:48;;;;;;;0.00;0.00;;;19.20;75.20;;;;;;5019493;28;20213;-30
2023/10/20 09:58:33;;;;;;;0.00;0.00;;;19.30;75.30;;;;;;5028054;28;20687;-30
2023/10/20 10:01:02;;;;;;;0.00;0.00;;;19.30;75.30;;;;;;5025212;28;20197;-30
2023/10/20 10:03:40;;;;;;;0.00;0.00;;;19.30;75.20;;;;;;5013668;28;20239;-30
2023/10/20 10:06:10;;;;;;;0.00;0.00;;;19.30;76.10;;;;;;5015947;28;20291;-29
2023/10/20 10:08:47;;;;;;;0.00;0.00;;;19.30;75.30;;;;;;5007684;28;20308;-30
2023/10/20 10:11:42;;;;;;;0.00;0.00;;;19.40;75.40;;;;;;5010607;28;20609;-30
2023/10/20 10:14:20;;;;;;;0.00;0.00;;;19.40;75.40;;;;;;5017189;28;20214;-30
2023/10/20 10:16:53;;;;;;;0.00;0.00;;;19.40;75.30;;;;;;5010128;28;20309;-30
2023/10/20 10:19:27;;;;;;;0.00;0.00;;;19.40;75.40;;;;;;5010226;28;20221;-30
2023/10/20 10:22:01;;;;;;;0.00;0.00;;;19.40;75.50;;;;;;5020095;28;20308;-30
2023/10/20 10:24:36;;;;;;;0.00;0.00;;;19.40;75.40;;;;;;5011121;28;20263;-30
2023/10/20 10:27:07;;;;;;;0.00;0.00;;;19.40;75.30;;;;;;5022625;28;20209;-30
2023/10/20 10:29:46;;;;;;;0.00;0.00;;;19.40;75.30;;;;;;5019480;28;20236;-30
2023/10/20 10:32:13;;;;;;;0.00;0.00;;;19.40;75.40;;;;;;5009887;28;20778;-29
2023/10/20 10:34:51;;;;;;;0.00;0.00;;;19.40;75.40;;;;;;5007111;28;20224;-30
2023/10/20 10:37:37;;;;;;;0.00;0.00;;;19.50;75.60;;;;;;5019676;28;20207;-29
2023/10/20 10:40:10;;;;;;;0.00;0.00;;;19.50;75.50;;;;;;5030781;28;20256;-30
2023/10/20 10:42:45;;;;;;;0.00;0.00;;;19.50;75.50;;;;;;5022419;28;20221;-30
2023/10/20 10:45:30;;;;;;;0.00;0.00;;;19.50;75.50;;;;;;5023758;28;20213;-30
2023/10/20 10:48:10;;;;;;;0.00;0.00;;;19.50;75.50;;;;;;5025520;28;20773;-29
2023/10/20 10:50:38;;;;;;;0.00;0.00;;;19.50;75.40;;;;;;5023630;28;20726;-30
2023/10/20 10:53:10;;;;;;;0.00;0.00;;;19.50;75.30;;;;;;5018344;28;20216;-30
2023/10/20 10:55:41;;;;;;;0.00;0.00;;;19.60;75.40;;;;;;5029040;28;20213;-30
2023/10/20 10:58:16;;;;;;;0.00;0.00;;;19.50;75.10;;;;;;5018176;28;20623;-30
2023/10/20 11:00:46;;;;;;;0.00;0.00;;;19.50;75.10;;;;;;4998610;28;20582;-30
2023/10/20 11:03:16;;;;;;;0.00;0.00;;;19.50;75.10;;;;;;5015599;28;20241;-30
2023/10/20 11:05:43;;;;;;;0.00;0.00;;;19.50;75.00;;;;;;5024992;28;20212;-30
2023/10/20 11:08:13;;;;;;;0.00;0.00;;;19.50;75.00;;;;;;5009378;28;20236;-30
2023/10/20 11:10:46;;;;;;;0.00;0.00;;;19.40;74.80;;;;;;5034239;28;20208;-30
2023/10/20 11:13:16;;;;;;;0.00;0.00;;;19.40;74.90;;;;;;5012601;28;20210;-30
2023/10/20 11:15:49;;;;;;;0.00;0.00;;;19.40;74.90;;;;;;5012395;28;20201;-30
2023/10/20 11:18:16;;;;;;;0.00;0.00;;;19.40;75.00;;;;;;5012698;28;20216;-29
2023/10/20 11:20:49;;;;;;;0.00;0.00;;;19.30;74.90;;;;;;5027246;28;20868;-29
2023/10/20 11:23:27;;;;;;;0.00;0.00;;;19.30;74.90;;;;;;5027347;28;20201;-29
2023/10/20 11:25:57;;;;;;;0.00;0.00;;;19.30;74.90;;;;;;5021881;28;20565;-30
2023/10/20 11:28:29;;;;;;;0.00;0.00;;;19.20;74.90;;;;;;5025554;28;20960;-29
2023/10/20 11:30:56;;;;;;;0.00;0.00;;;19.20;74.80;;;;;;5023083;28;20244;-30
2023/10/20 11:33:24;;;;;;;0.00;0.00;;;19.20;74.80;;;;;;5008512;28;20225;-29
2023/10/20 11:35:53;;;;;;;0.00;0.00;;;19.10;74.80;;;;;;5009075;28;20205;-30
2023/10/20 11:38:26;;;;;;;0.00;0.00;;;19.10;74.80;;;;;;5008214;28;20212;-30
2023/10/20 11:40:55;;;;;;;0.00;0.00;;;19.10;75.60;;;;;;5010680;28;20662;-30
2023/10/20 11:43:25;;;;;;;0.00;0.00;;;19.10;74.80;;;;;;5025595;28;20213;-30
2023/10/20 11:45:54;;;;;;;0.00;0.00;;;19.00;74.80;;;;;;5021892;28;20201;-30
2023/10/20 11:48:23;;;;;;;0.00;0.00;;;19.00;74.80;;;;;;5026752;28;20284;-30
2023/10/20 11:50:53;;;;;;;0.00;0.00;;;19.00;74.80;;;;;;5026928;28;20551;-30
2023/10/20 11:53:23;;;;;;;0.00;0.00;;;18.90;74.70;;;;;;5004469;28;20272;-30
2023/10/20 11:55:52;;;;;;;0.00;0.00;;;18.90;74.70;;;;;;5026961;28;20356;-29
2023/10/20 11:58:19;;;;;;;0.00;0.00;;;18.90;74.70;;;;;;5026659;28;20229;-30
2023/10/20 12:00:46;;;;;;;0.00;0.00;;;18.90;74.70;;;;;;5022399;28;20240;-30
2023/10/20 12:03:14;;;;;;;0.00;0.00;;;18.80;74.70;;;;;;5016882;28;20239;-30
2023/10/20 12:05:47;;;;;;;0.00;0.00;;;18.80;74.70;;;;;;5025896;28;20686;-30
2023/10/20 12:08:15;;;;;;;0.00;0.00;;;18.80;74.70;;;;;;5004751;28;20197;-30
2023/10/20 12:10:43;;;;;;;0.00;0.00;;;18.80;74.70;;;;;;5004763;28;20321;-30
2023/10/20 12:13:12;;;;;;;0.00;0.00;;;18.70;74.80;;;;;;5003514;28;20643;-30
2023/10/20 12:15:42;;;;;;;0.00;0.00;;;18.70;74.80;;;;;;5005424;28;20247;-30
2023/10/20 12:18:12;;;;;;;0.00;0.00;;;18.60;74.70;;;;;;5019346;28;20329;-29
2023/10/20 12:20:41;;;;;;;0.00;0.00;;;18.60;74.70;;;;;;5005895;28;20312;-30
2023/10/20 12:23:09;;;;;;;0.00;0.00;;;18.60;74.70;;;;;;4998992;28;20208;-30
2023/10/20 12:25:39;;;;;;;0.00;0.00;;;18.60;74.80;;;;;;5016804;28;20248;-31
2023/10/20 12:28:14;;;;;;;0.00;0.00;;;18.60;74.80;;;;;;5030774;28;20198;-30
2023/10/20 12:30:44;;;;;;;0.00;0.00;;;18.60;74.90;;;;;;5021877;28;20214;-30
2023/10/20 12:33:12;;;;;;;0.00;0.00;;;18.50;74.80;;;;;;4989218;28;20295;-30
2023/10/20 12:35:41;;;;;;;0.00;0.00;;;18.50;74.90;;;;;;5012164;28;20318;-30
2023/10/20 12:38:16;;;;;;;0.00;0.00;;;18.50;74.90;;;;;;5023622;28;20198;-30
2023/10/20 12:40:43;;;;;;;0.00;0.00;;;18.50;74.90;;;;;;5010095;28;20217;-30
2023/10/20 12:43:10;;;;;;;0.00;0.00;;;18.50;74.80;;;;;;5022899;28;20325;-30
2023/10/20 12:45:41;;;;;;;0.00;0.00;;;18.40;74.60;;;;;;5025086;28;20928;-30
2023/10/20 12:48:11;;;;;;;0.00;0.00;;;18.40;74.70;;;;;;5020283;28;20220;-30
2023/10/20 12:50:41;;;;;;;0.00;0.00;;;18.40;74.80;;;;;;5017895;28;20208;-30
2023/10/20 12:53:12;;;;;;;0.00;0.00;;;18.30;74.60;;;;;;5024527;28;20201;-30
2023/10/20 12:55:40;;;;;;;0.00;0.00;;;18.30;74.70;;;;;;5023032;28;20305;-30
2023/10/20 12:58:09;;;;;;;0.00;0.00;;;18.30;74.60;;;;;;5017021;28;20223;-30
2023/10/20 13:00:36;;;;;;;0.00;0.00;;;18.20;74.60;;;;;;5012989;28;20227;-30
2023/10/20 13:03:03;;;;;;;0.00;0.00;;;18.20;74.60;;;;;;5027258;28;20241;-35
2023/10/20 13:05:31;;;;;;;0.00;0.00;;;18.20;74.70;;;;;;5026215;28;20222;-30
2023/10/20 13:07:58;;;;;;;0.00;0.00;;;18.20;74.80;;;;;;5013730;28;21017;-30
2023/10/20 13:10:30;;;;;;;0.00;0.00;;;18.20;74.80;;;;;;5028606;28;20700;-30
2023/10/20 13:12:58;;;;;;;0.00;0.00;;;18.10;74.80;;;;;;5010735;28;20620;-29
2023/10/20 13:15:28;;;;;;;0.00;0.00;;;18.10;74.80;;;;;;5016772;28;20209;-30
2023/10/20 13:18:00;;;;;;;0.00;0.00;;;18.20;74.90;;;;;;5010912;28;20220;-31
2023/10/20 13:20:29;;;;;;;0.00;0.00;;;18.10;74.80;;;;;;5015472;28;20209;-30
2023/10/20 13:22:57;;;;;;;0.00;0.00;;;18.10;74.80;;;;;;5023499;28;20216;-30
2023/10/20 13:25:24;;;;;;;0.00;0.00;;;18.10;74.90;;;;;;5011903;28;20241;-30
2023/10/20 13:27:54;;;;;;;0.00;0.00;;;18.10;74.90;;;;;;5020781;28;20205;-29